Weather at Hallelujah Field

Public forecast

Using degrees Fahrenheit for public forecast. Weather courtesy of forecast.io.

Closest aviation weather report (METAR) to Hallelujah Field

Closest report is Clermont County Airport, 8.9 nm (16.5 km) SSW. Retrieved 2021/06/13 16:15 UTC (0 seconds ago):

KI69 131615Z AUTO 00000KT 10SM CLR 30/22 A2992 RMK AO2 T03010216

Closest aviation forecast (TAF) to Hallelujah Field

Closest forecast is Cincinnati Municipal Airport Lunken Field, 15.8 nm (29.2 km) WSW. Retrieved 2021/06/13 12:36 UTC (4 hours ago):

TAF KLUK 131133Z 1312/1412 24005KT P6SM SCT070 FM131500 32005KT P6SM VCTS SCT035CB FM131900 33007KT P6SM SCT040 FM140000 35008KT P6SM SCT250 FM141000 00000KT 5SM BR SKC